sensor_id;sensor_type;location;lat;lon;timestamp;P1;durP1;ratioP1;P2;durP2;ratioP2
59145;SDS011;44928;53.074;6.646;2023-02-10T00:01:48;23.60;;;9.38;;
59145;SDS011;44928;53.074;6.646;2023-02-10T00:04:14;26.90;;;8.63;;
59145;SDS011;44928;53.074;6.646;2023-02-10T00:06:40;26.35;;;9.52;;
59145;SDS011;44928;53.074;6.646;2023-02-10T00:09:06;24.38;;;8.55;;
59145;SDS011;44928;53.074;6.646;2023-02-10T00:11:32;25.33;;;9.45;;
59145;SDS011;44928;53.074;6.646;2023-02-10T00:14:17;22.30;;;9.20;;
59145;SDS011;44928;53.074;6.646;2023-02-10T00:16:44;25.85;;;8.70;;
59145;SDS011;44928;53.074;6.646;2023-02-10T00:19:10;28.52;;;9.43;;
59145;SDS011;44928;53.074;6.646;2023-02-10T00:21:36;26.58;;;9.00;;
59145;SDS011;44928;53.074;6.646;2023-02-10T00:24:02;19.17;;;8.45;;
59145;SDS011;44928;53.074;6.646;2023-02-10T00:26:28;26.08;;;7.97;;
59145;SDS011;44928;53.074;6.646;2023-02-10T00:28:54;27.95;;;8.50;;
59145;SDS011;44928;53.074;6.646;2023-02-10T00:31:19;22.08;;;7.45;;
59145;SDS011;44928;53.074;6.646;2023-02-10T00:33:46;23.67;;;7.85;;
59145;SDS011;44928;53.074;6.646;2023-02-10T00:36:12;24.25;;;8.38;;
59145;SDS011;44928;53.074;6.646;2023-02-10T00:38:39;21.23;;;7.20;;
59145;SDS011;44928;53.074;6.646;2023-02-10T00:41:06;22.77;;;7.57;;
59145;SDS011;44928;53.074;6.646;2023-02-10T00:43:40;21.45;;;8.68;;
59145;SDS011;44928;53.074;6.646;2023-02-10T00:46:07;24.33;;;7.82;;
59145;SDS011;44928;53.074;6.646;2023-02-10T00:48:33;21.52;;;7.22;;
59145;SDS011;44928;53.074;6.646;2023-02-10T00:50:59;24.77;;;8.55;;
59145;SDS011;44928;53.074;6.646;2023-02-10T00:53:25;23.73;;;7.57;;
59145;SDS011;44928;53.074;6.646;2023-02-10T00:55:51;22.38;;;7.68;;
59145;SDS011;44928;53.074;6.646;2023-02-10T00:58:16;23.27;;;8.45;;
59145;SDS011;44928;53.074;6.646;2023-02-10T01:00:42;17.08;;;7.22;;
59145;SDS011;44928;53.074;6.646;2023-02-10T01:03:08;23.08;;;8.20;;
59145;SDS011;44928;53.074;6.646;2023-02-10T01:05:34;20.48;;;7.03;;
59145;SDS011;44928;53.074;6.646;2023-02-10T01:08:00;20.65;;;7.55;;
59145;SDS011;44928;53.074;6.646;2023-02-10T01:10:26;26.40;;;7.38;;
59145;SDS011;44928;53.074;6.646;2023-02-10T01:12:53;19.83;;;7.63;;
59145;SDS011;44928;53.074;6.646;2023-02-10T01:15:18;25.40;;;7.63;;
59145;SDS011;44928;53.074;6.646;2023-02-10T01:17:44;23.40;;;7.13;;
59145;SDS011;44928;53.074;6.646;2023-02-10T01:20:10;20.25;;;7.55;;
59145;SDS011;44928;53.074;6.646;2023-02-10T01:22:36;17.25;;;6.75;;
59145;SDS011;44928;53.074;6.646;2023-02-10T01:25:02;22.33;;;6.40;;
59145;SDS011;44928;53.074;6.646;2023-02-10T01:27:28;22.27;;;7.32;;
59145;SDS011;44928;53.074;6.646;2023-02-10T01:29:54;23.98;;;7.43;;
59145;SDS011;44928;53.074;6.646;2023-02-10T01:32:20;17.73;;;6.65;;
59145;SDS011;44928;53.074;6.646;2023-02-10T01:34:46;18.25;;;7.00;;
59145;SDS011;44928;53.074;6.646;2023-02-10T01:37:12;23.48;;;6.72;;
59145;SDS011;44928;53.074;6.646;2023-02-10T01:39:37;25.98;;;8.07;;
59145;SDS011;44928;53.074;6.646;2023-02-10T01:42:03;21.95;;;7.60;;
59145;SDS011;44928;53.074;6.646;2023-02-10T01:46:55;27.92;;;7.10;;
59145;SDS011;44928;53.074;6.646;2023-02-10T01:49:22;22.10;;;6.90;;
59145;SDS011;44928;53.074;6.646;2023-02-10T01:51:55;20.70;;;6.78;;
59145;SDS011;44928;53.074;6.646;2023-02-10T01:54:27;18.30;;;6.90;;
59145;SDS011;44928;53.074;6.646;2023-02-10T01:56:57;23.58;;;7.20;;
59145;SDS011;44928;53.074;6.646;2023-02-10T01:59:25;25.92;;;7.45;;
59145;SDS011;44928;53.074;6.646;2023-02-10T02:01:54;22.08;;;6.90;;
59145;SDS011;44928;53.074;6.646;2023-02-10T02:04:20;23.05;;;7.60;;
59145;SDS011;44928;53.074;6.646;2023-02-10T02:06:46;24.20;;;7.68;;
59145;SDS011;44928;53.074;6.646;2023-02-10T02:09:13;20.25;;;7.38;;
59145;SDS011;44928;53.074;6.646;2023-02-10T02:20:21;24.27;;;7.28;;
59145;SDS011;44928;53.074;6.646;2023-02-10T02:34:17;19.63;;;6.93;;
59145;SDS011;44928;53.074;6.646;2023-02-10T02:36:51;23.75;;;7.20;;
59145;SDS011;44928;53.074;6.646;2023-02-10T02:39:21;29.67;;;7.75;;
59145;SDS011;44928;53.074;6.646;2023-02-10T02:41:47;18.90;;;7.53;;
59145;SDS011;44928;53.074;6.646;2023-02-10T02:44:45;19.95;;;6.97;;
59145;SDS011;44928;53.074;6.646;2023-02-10T02:52:48;24.30;;;6.80;;
59145;SDS011;44928;53.074;6.646;2023-02-10T02:56:12;18.40;;;6.28;;
59145;SDS011;44928;53.074;6.646;2023-02-10T03:00:45;17.98;;;6.15;;
59145;SDS011;44928;53.074;6.646;2023-02-10T03:03:14;22.13;;;6.65;;
59145;SDS011;44928;53.074;6.646;2023-02-10T03:05:41;23.25;;;6.97;;
59145;SDS011;44928;53.074;6.646;2023-02-10T03:08:07;20.98;;;6.32;;
59145;SDS011;44928;53.074;6.646;2023-02-10T03:10:32;18.92;;;6.55;;
59145;SDS011;44928;53.074;6.646;2023-02-10T03:12:58;21.00;;;6.63;;
59145;SDS011;44928;53.074;6.646;2023-02-10T03:15:24;18.55;;;6.80;;
59145;SDS011;44928;53.074;6.646;2023-02-10T03:17:50;19.10;;;6.72;;
59145;SDS011;44928;53.074;6.646;2023-02-10T03:20:17;23.25;;;6.82;;
59145;SDS011;44928;53.074;6.646;2023-02-10T03:22:43;17.50;;;6.90;;
59145;SDS011;44928;53.074;6.646;2023-02-10T03:25:09;26.30;;;7.68;;
59145;SDS011;44928;53.074;6.646;2023-02-10T03:27:35;19.30;;;6.72;;
59145;SDS011;44928;53.074;6.646;2023-02-10T03:30:00;19.15;;;6.00;;
59145;SDS011;44928;53.074;6.646;2023-02-10T03:32:26;18.70;;;6.65;;
59145;SDS011;44928;53.074;6.646;2023-02-10T03:34:52;22.98;;;6.65;;
59145;SDS011;44928;53.074;6.646;2023-02-10T03:37:18;20.50;;;6.97;;
59145;SDS011;44928;53.074;6.646;2023-02-10T03:39:44;17.98;;;7.97;;
59145;SDS011;44928;53.074;6.646;2023-02-10T03:42:09;21.50;;;7.10;;
59145;SDS011;44928;53.074;6.646;2023-02-10T03:44:36;20.58;;;7.70;;
59145;SDS011;44928;53.074;6.646;2023-02-10T03:47:02;24.33;;;7.07;;
59145;SDS011;44928;53.074;6.646;2023-02-10T03:49:28;25.42;;;8.13;;
59145;SDS011;44928;53.074;6.646;2023-02-10T03:51:53;20.73;;;7.25;;
59145;SDS011;44928;53.074;6.646;2023-02-10T03:54:19;20.95;;;8.07;;
59145;SDS011;44928;53.074;6.646;2023-02-10T03:56:45;20.83;;;7.57;;
59145;SDS011;44928;53.074;6.646;2023-02-10T03:59:11;24.05;;;8.30;;
59145;SDS011;44928;53.074;6.646;2023-02-10T04:01:36;24.73;;;8.45;;
59145;SDS011;44928;53.074;6.646;2023-02-10T04:04:02;19.13;;;7.38;;
59145;SDS011;44928;53.074;6.646;2023-02-10T04:06:28;30.05;;;8.23;;
59145;SDS011;44928;53.074;6.646;2023-02-10T04:08:54;22.85;;;7.15;;
59145;SDS011;44928;53.074;6.646;2023-02-10T04:11:20;20.92;;;8.55;;
59145;SDS011;44928;53.074;6.646;2023-02-10T04:13:46;26.27;;;8.35;;
59145;SDS011;44928;53.074;6.646;2023-02-10T04:16:13;21.35;;;7.53;;
59145;SDS011;44928;53.074;6.646;2023-02-10T04:18:40;22.75;;;8.98;;
59145;SDS011;44928;53.074;6.646;2023-02-10T04:21:07;21.73;;;7.63;;
59145;SDS011;44928;53.074;6.646;2023-02-10T04:23:35;18.23;;;7.20;;
59145;SDS011;44928;53.074;6.646;2023-02-10T04:26:01;19.90;;;7.45;;
59145;SDS011;44928;53.074;6.646;2023-02-10T04:28:28;25.58;;;8.40;;
59145;SDS011;44928;53.074;6.646;2023-02-10T04:30:54;24.98;;;7.50;;
59145;SDS011;44928;53.074;6.646;2023-02-10T04:33:21;26.25;;;7.47;;
59145;SDS011;44928;53.074;6.646;2023-02-10T04:35:50;20.40;;;7.78;;
59145;SDS011;44928;53.074;6.646;2023-02-10T04:38:16;23.35;;;7.10;;
59145;SDS011;44928;53.074;6.646;2023-02-10T04:40:42;21.50;;;7.18;;
59145;SDS011;44928;53.074;6.646;2023-02-10T04:43:09;19.80;;;6.93;;
59145;SDS011;44928;53.074;6.646;2023-02-10T04:45:35;21.85;;;6.90;;
59145;SDS011;44928;53.074;6.646;2023-02-10T04:48:01;22.50;;;7.50;;
59145;SDS011;44928;53.074;6.646;2023-02-10T04:50:27;21.58;;;6.97;;
59145;SDS011;44928;53.074;6.646;2023-02-10T04:52:53;24.58;;;7.68;;
59145;SDS011;44928;53.074;6.646;2023-02-10T04:55:18;20.17;;;7.45;;
59145;SDS011;44928;53.074;6.646;2023-02-10T04:57:44;22.65;;;6.60;;
59145;SDS011;44928;53.074;6.646;2023-02-10T05:00:10;23.23;;;7.40;;
59145;SDS011;44928;53.074;6.646;2023-02-10T05:02:37;21.92;;;7.30;;
59145;SDS011;44928;53.074;6.646;2023-02-10T05:05:03;19.20;;;7.05;;
59145;SDS011;44928;53.074;6.646;2023-02-10T05:07:30;16.95;;;6.30;;
59145;SDS011;44928;53.074;6.646;2023-02-10T05:09:56;23.95;;;7.85;;
59145;SDS011;44928;53.074;6.646;2023-02-10T05:12:22;20.88;;;7.32;;
59145;SDS011;44928;53.074;6.646;2023-02-10T05:14:48;21.38;;;7.65;;
59145;SDS011;44928;53.074;6.646;2023-02-10T05:17:14;25.90;;;6.70;;
59145;SDS011;44928;53.074;6.646;2023-02-10T05:19:39;18.35;;;7.40;;
59145;SDS011;44928;53.074;6.646;2023-02-10T05:22:05;20.35;;;7.45;;
59145;SDS011;44928;53.074;6.646;2023-02-10T05:24:31;25.55;;;8.15;;
59145;SDS011;44928;53.074;6.646;2023-02-10T05:26:57;22.77;;;8.30;;
59145;SDS011;44928;53.074;6.646;2023-02-10T05:29:22;22.50;;;7.82;;
59145;SDS011;44928;53.074;6.646;2023-02-10T05:31:48;24.63;;;8.13;;
59145;SDS011;44928;53.074;6.646;2023-02-10T05:34:14;20.20;;;8.50;;
59145;SDS011;44928;53.074;6.646;2023-02-10T05:36:40;20.40;;;8.15;;
59145;SDS011;44928;53.074;6.646;2023-02-10T05:39:08;23.40;;;8.20;;
59145;SDS011;44928;53.074;6.646;2023-02-10T05:41:53;20.52;;;8.82;;
59145;SDS011;44928;53.074;6.646;2023-02-10T05:44:21;26.70;;;9.27;;
59145;SDS011;44928;53.074;6.646;2023-02-10T05:46:47;24.95;;;9.35;;
59145;SDS011;44928;53.074;6.646;2023-02-10T05:49:13;22.35;;;8.35;;
59145;SDS011;44928;53.074;6.646;2023-02-10T05:51:39;21.15;;;8.60;;
59145;SDS011;44928;53.074;6.646;2023-02-10T05:54:05;19.95;;;8.43;;
59145;SDS011;44928;53.074;6.646;2023-02-10T05:56:31;19.75;;;8.35;;
59145;SDS011;44928;53.074;6.646;2023-02-10T05:58:57;22.38;;;8.50;;
59145;SDS011;44928;53.074;6.646;2023-02-10T06:01:23;20.67;;;8.93;;
59145;SDS011;44928;53.074;6.646;2023-02-10T06:03:48;24.40;;;8.98;;
59145;SDS011;44928;53.074;6.646;2023-02-10T06:06:14;25.30;;;10.32;;
59145;SDS011;44928;53.074;6.646;2023-02-10T06:08:40;23.35;;;8.60;;
59145;SDS011;44928;53.074;6.646;2023-02-10T06:11:06;23.73;;;9.95;;
59145;SDS011;44928;53.074;6.646;2023-02-10T06:13:32;20.27;;;9.32;;
59145;SDS011;44928;53.074;6.646;2023-02-10T06:15:58;21.63;;;9.00;;
59145;SDS011;44928;53.074;6.646;2023-02-10T06:18:27;23.60;;;9.25;;
59145;SDS011;44928;53.074;6.646;2023-02-10T06:20:53;24.30;;;8.85;;
59145;SDS011;44928;53.074;6.646;2023-02-10T06:23:19;21.90;;;8.82;;
59145;SDS011;44928;53.074;6.646;2023-02-10T06:25:45;22.90;;;8.65;;
59145;SDS011;44928;53.074;6.646;2023-02-10T06:28:12;21.08;;;8.50;;
59145;SDS011;44928;53.074;6.646;2023-02-10T06:30:39;21.67;;;9.20;;
59145;SDS011;44928;53.074;6.646;2023-02-10T06:33:06;19.35;;;8.10;;
59145;SDS011;44928;53.074;6.646;2023-02-10T06:35:31;19.33;;;8.48;;
59145;SDS011;44928;53.074;6.646;2023-02-10T06:37:57;19.95;;;8.38;;
59145;SDS011;44928;53.074;6.646;2023-02-10T06:40:23;24.35;;;9.38;;
59145;SDS011;44928;53.074;6.646;2023-02-10T06:42:49;23.38;;;8.75;;
59145;SDS011;44928;53.074;6.646;2023-02-10T06:45:15;25.65;;;8.82;;
59145;SDS011;44928;53.074;6.646;2023-02-10T06:47:41;19.08;;;8.45;;
59145;SDS011;44928;53.074;6.646;2023-02-10T06:50:06;17.05;;;8.45;;
59145;SDS011;44928;53.074;6.646;2023-02-10T06:52:34;23.63;;;8.73;;
59145;SDS011;44928;53.074;6.646;2023-02-10T06:55:03;23.88;;;9.20;;
59145;SDS011;44928;53.074;6.646;2023-02-10T06:57:29;21.40;;;8.45;;
59145;SDS011;44928;53.074;6.646;2023-02-10T06:59:55;22.15;;;9.43;;
59145;SDS011;44928;53.074;6.646;2023-02-10T07:02:21;18.83;;;8.65;;
59145;SDS011;44928;53.074;6.646;2023-02-10T07:04:47;21.75;;;9.18;;
59145;SDS011;44928;53.074;6.646;2023-02-10T07:07:13;17.40;;;8.02;;
59145;SDS011;44928;53.074;6.646;2023-02-10T07:09:38;22.45;;;9.23;;
59145;SDS011;44928;53.074;6.646;2023-02-10T07:12:04;21.75;;;9.27;;
59145;SDS011;44928;53.074;6.646;2023-02-10T07:14:30;23.40;;;9.45;;
59145;SDS011;44928;53.074;6.646;2023-02-10T07:16:56;22.20;;;9.13;;
59145;SDS011;44928;53.074;6.646;2023-02-10T07:19:22;19.05;;;8.80;;
59145;SDS011;44928;53.074;6.646;2023-02-10T07:21:47;20.45;;;8.30;;
59145;SDS011;44928;53.074;6.646;2023-02-10T07:24:13;17.85;;;8.38;;
59145;SDS011;44928;53.074;6.646;2023-02-10T07:26:40;18.95;;;8.77;;
59145;SDS011;44928;53.074;6.646;2023-02-10T07:29:05;20.10;;;8.82;;
59145;SDS011;44928;53.074;6.646;2023-02-10T07:31:31;20.20;;;8.75;;
59145;SDS011;44928;53.074;6.646;2023-02-10T07:34:00;17.33;;;8.15;;
59145;SDS011;44928;53.074;6.646;2023-02-10T07:36:27;25.92;;;9.48;;
59145;SDS011;44928;53.074;6.646;2023-02-10T07:38:53;20.15;;;8.63;;
59145;SDS011;44928;53.074;6.646;2023-02-10T07:41:19;19.88;;;8.52;;
59145;SDS011;44928;53.074;6.646;2023-02-10T07:43:44;22.85;;;9.35;;
59145;SDS011;44928;53.074;6.646;2023-02-10T07:46:10;22.08;;;9.43;;
59145;SDS011;44928;53.074;6.646;2023-02-10T07:48:36;20.73;;;8.80;;
59145;SDS011;44928;53.074;6.646;2023-02-10T07:51:02;23.30;;;9.63;;
59145;SDS011;44928;53.074;6.646;2023-02-10T07:53:28;22.80;;;8.75;;
59145;SDS011;44928;53.074;6.646;2023-02-10T07:55:54;23.08;;;10.02;;
59145;SDS011;44928;53.074;6.646;2023-02-10T07:58:23;19.98;;;8.98;;
59145;SDS011;44928;53.074;6.646;2023-02-10T08:00:49;21.58;;;9.23;;
59145;SDS011;44928;53.074;6.646;2023-02-10T08:03:15;21.05;;;9.48;;
59145;SDS011;44928;53.074;6.646;2023-02-10T08:05:41;21.88;;;9.38;;
59145;SDS011;44928;53.074;6.646;2023-02-10T08:08:07;20.58;;;9.25;;
59145;SDS011;44928;53.074;6.646;2023-02-10T08:10:34;21.90;;;9.70;;
59145;SDS011;44928;53.074;6.646;2023-02-10T08:13:02;23.52;;;9.98;;
59145;SDS011;44928;53.074;6.646;2023-02-10T08:15:28;18.90;;;9.65;;
59145;SDS011;44928;53.074;6.646;2023-02-10T08:17:53;23.95;;;9.75;;
59145;SDS011;44928;53.074;6.646;2023-02-10T08:20:19;22.90;;;10.23;;
59145;SDS011;44928;53.074;6.646;2023-02-10T08:22:45;21.08;;;9.55;;
59145;SDS011;44928;53.074;6.646;2023-02-10T08:25:11;21.52;;;9.27;;
59145;SDS011;44928;53.074;6.646;2023-02-10T08:27:36;25.30;;;10.27;;
59145;SDS011;44928;53.074;6.646;2023-02-10T08:30:03;25.00;;;9.98;;
59145;SDS011;44928;53.074;6.646;2023-02-10T08:32:30;28.05;;;9.75;;
59145;SDS011;44928;53.074;6.646;2023-02-10T08:34:56;19.83;;;9.85;;
59145;SDS011;44928;53.074;6.646;2023-02-10T08:37:22;23.65;;;10.10;;
59145;SDS011;44928;53.074;6.646;2023-02-10T08:39:48;22.75;;;10.43;;
59145;SDS011;44928;53.074;6.646;2023-02-10T08:42:14;24.02;;;10.43;;
59145;SDS011;44928;53.074;6.646;2023-02-10T08:44:40;22.77;;;10.13;;
59145;SDS011;44928;53.074;6.646;2023-02-10T08:47:05;20.40;;;9.95;;
59145;SDS011;44928;53.074;6.646;2023-02-10T08:49:31;21.55;;;9.85;;
59145;SDS011;44928;53.074;6.646;2023-02-10T08:51:57;23.70;;;10.50;;
59145;SDS011;44928;53.074;6.646;2023-02-10T08:54:25;23.13;;;10.73;;
59145;SDS011;44928;53.074;6.646;2023-02-10T08:56:54;27.90;;;10.57;;
59145;SDS011;44928;53.074;6.646;2023-02-10T08:59:20;21.80;;;10.20;;
59145;SDS011;44928;53.074;6.646;2023-02-10T09:01:45;21.63;;;9.82;;
59145;SDS011;44928;53.074;6.646;2023-02-10T09:04:11;21.40;;;10.82;;
59145;SDS011;44928;53.074;6.646;2023-02-10T09:06:37;26.25;;;10.85;;
59145;SDS011;44928;53.074;6.646;2023-02-10T09:09:08;22.40;;;10.45;;
59145;SDS011;44928;53.074;6.646;2023-02-10T09:11:34;27.02;;;11.55;;
59145;SDS011;44928;53.074;6.646;2023-02-10T09:14:00;21.17;;;10.88;;
59145;SDS011;44928;53.074;6.646;2023-02-10T09:16:26;26.63;;;11.45;;
59145;SDS011;44928;53.074;6.646;2023-02-10T09:18:52;24.73;;;11.50;;
59145;SDS011;44928;53.074;6.646;2023-02-10T09:21:18;24.90;;;11.10;;
59145;SDS011;44928;53.074;6.646;2023-02-10T09:23:44;21.45;;;11.07;;
59145;SDS011;44928;53.074;6.646;2023-02-10T09:26:10;21.30;;;10.40;;
59145;SDS011;44928;53.074;6.646;2023-02-10T09:28:36;23.00;;;10.40;;
59145;SDS011;44928;53.074;6.646;2023-02-10T09:31:05;20.90;;;10.50;;
59145;SDS011;44928;53.074;6.646;2023-02-10T09:33:31;29.85;;;11.88;;
59145;SDS011;44928;53.074;6.646;2023-02-10T09:35:57;25.35;;;12.63;;
59145;SDS011;44928;53.074;6.646;2023-02-10T09:38:24;22.15;;;11.15;;
59145;SDS011;44928;53.074;6.646;2023-02-10T09:46:00;23.23;;;11.70;;
59145;SDS011;44928;53.074;6.646;2023-02-10T09:54:08;25.15;;;11.50;;
59145;SDS011;44928;53.074;6.646;2023-02-10T09:56:35;24.63;;;11.40;;
59145;SDS011;44928;53.074;6.646;2023-02-10T09:59:04;21.95;;;11.00;;
59145;SDS011;44928;53.074;6.646;2023-02-10T10:01:44;19.90;;;11.32;;
59145;SDS011;44928;53.074;6.646;2023-02-10T10:04:15;23.98;;;10.23;;
59145;SDS011;44928;53.074;6.646;2023-02-10T10:06:43;21.17;;;10.30;;
59145;SDS011;44928;53.074;6.646;2023-02-10T10:10:13;21.42;;;10.30;;
59145;SDS011;44928;53.074;6.646;2023-02-10T10:12:25;26.20;;;11.20;;
59145;SDS011;44928;53.074;6.646;2023-02-10T10:14:51;24.42;;;11.10;;
59145;SDS011;44928;53.074;6.646;2023-02-10T10:17:32;22.55;;;11.27;;
59145;SDS011;44928;53.074;6.646;2023-02-10T10:30:18;25.42;;;10.68;;
59145;SDS011;44928;53.074;6.646;2023-02-10T10:32:53;23.13;;;9.88;;
59145;SDS011;44928;53.074;6.646;2023-02-10T10:35:32;24.70;;;11.85;;
59145;SDS011;44928;53.074;6.646;2023-02-10T10:38:13;21.77;;;8.90;;
59145;SDS011;44928;53.074;6.646;2023-02-10T10:40:43;24.50;;;11.40;;
59145;SDS011;44928;53.074;6.646;2023-02-10T10:43:13;23.23;;;10.93;;
59145;SDS011;44928;53.074;6.646;2023-02-10T10:45:47;21.98;;;10.40;;
59145;SDS011;44928;53.074;6.646;2023-02-10T10:48:23;22.08;;;11.05;;
59145;SDS011;44928;53.074;6.646;2023-02-10T10:50:54;22.38;;;11.13;;
59145;SDS011;44928;53.074;6.646;2023-02-10T10:59:14;22.10;;;10.35;;
59145;SDS011;44928;53.074;6.646;2023-02-10T11:02:10;24.08;;;11.43;;
59145;SDS011;44928;53.074;6.646;2023-02-10T11:04:36;23.25;;;11.40;;
59145;SDS011;44928;53.074;6.646;2023-02-10T11:07:08;20.52;;;9.90;;
59145;SDS011;44928;53.074;6.646;2023-02-10T11:09:36;32.50;;;12.18;;
59145;SDS011;44928;53.074;6.646;2023-02-10T11:14:48;28.15;;;11.35;;
59145;SDS011;44928;53.074;6.646;2023-02-10T11:17:39;26.90;;;11.23;;
59145;SDS011;44928;53.074;6.646;2023-02-10T11:22:37;27.17;;;12.18;;
59145;SDS011;44928;53.074;6.646;2023-02-10T11:25:21;26.08;;;11.23;;
59145;SDS011;44928;53.074;6.646;2023-02-10T11:27:54;25.42;;;8.98;;
59145;SDS011;44928;53.074;6.646;2023-02-10T11:30:28;23.15;;;10.15;;
59145;SDS011;44928;53.074;6.646;2023-02-10T11:33:02;26.33;;;11.20;;
59145;SDS011;44928;53.074;6.646;2023-02-10T11:35:30;21.95;;;9.70;;
59145;SDS011;44928;53.074;6.646;2023-02-10T11:38:06;22.60;;;10.50;;
59145;SDS011;44928;53.074;6.646;2023-02-10T11:43:36;27.17;;;11.35;;
59145;SDS011;44928;53.074;6.646;2023-02-10T11:46:06;25.55;;;9.30;;
59145;SDS011;44928;53.074;6.646;2023-02-10T11:48:34;20.92;;;9.32;;
59145;SDS011;44928;53.074;6.646;2023-02-10T11:51:04;21.33;;;8.27;;
59145;SDS011;44928;53.074;6.646;2023-02-10T11:53:41;21.23;;;7.82;;
59145;SDS011;44928;53.074;6.646;2023-02-10T11:59:19;20.17;;;7.93;;
59145;SDS011;44928;53.074;6.646;2023-02-10T12:02:10;20.60;;;7.40;;
59145;SDS011;44928;53.074;6.646;2023-02-10T12:10:00;22.45;;;7.90;;
59145;SDS011;44928;53.074;6.646;2023-02-10T12:25:50;19.23;;;7.38;;
59145;SDS011;44928;53.074;6.646;2023-02-10T12:28:20;17.77;;;7.25;;
59145;SDS011;44928;53.074;6.646;2023-02-10T12:42:51;19.17;;;5.85;;
59145;SDS011;44928;53.074;6.646;2023-02-10T12:54:30;16.08;;;5.28;;
59145;SDS011;44928;53.074;6.646;2023-02-10T12:57:09;15.32;;;5.72;;
59145;SDS011;44928;53.074;6.646;2023-02-10T12:59:52;15.95;;;4.75;;
59145;SDS011;44928;53.074;6.646;2023-02-10T13:02:40;16.55;;;5.95;;
59145;SDS011;44928;53.074;6.646;2023-02-10T13:05:11;17.45;;;5.13;;
59145;SDS011;44928;53.074;6.646;2023-02-10T13:07:53;14.90;;;4.25;;
59145;SDS011;44928;53.074;6.646;2023-02-10T13:10:33;17.25;;;5.10;;
59145;SDS011;44928;53.074;6.646;2023-02-10T13:15:49;16.27;;;4.60;;
59145;SDS011;44928;53.074;6.646;2023-02-10T13:18:22;12.85;;;4.00;;
59145;SDS011;44928;53.074;6.646;2023-02-10T13:23:47;13.55;;;4.72;;
59145;SDS011;44928;53.074;6.646;2023-02-10T13:34:31;16.90;;;4.70;;
59145;SDS011;44928;53.074;6.646;2023-02-10T13:37:07;15.50;;;4.40;;
59145;SDS011;44928;53.074;6.646;2023-02-10T13:39:39;14.57;;;4.15;;
59145;SDS011;44928;53.074;6.646;2023-02-10T13:44:56;17.60;;;4.47;;
59145;SDS011;44928;53.074;6.646;2023-02-10T13:47:29;15.45;;;4.03;;
59145;SDS011;44928;53.074;6.646;2023-02-10T13:52:47;13.65;;;4.15;;
59145;SDS011;44928;53.074;6.646;2023-02-10T13:57:53;14.52;;;4.00;;
59145;SDS011;44928;53.074;6.646;2023-02-10T14:00:26;18.00;;;3.83;;
59145;SDS011;44928;53.074;6.646;2023-02-10T14:08:14;15.15;;;4.65;;
59145;SDS011;44928;53.074;6.646;2023-02-10T14:10:58;16.58;;;4.38;;
59145;SDS011;44928;53.074;6.646;2023-02-10T14:13:59;14.50;;;4.63;;
59145;SDS011;44928;53.074;6.646;2023-02-10T14:16:31;16.27;;;4.18;;
59145;SDS011;44928;53.074;6.646;2023-02-10T14:19:04;15.55;;;4.13;;
59145;SDS011;44928;53.074;6.646;2023-02-10T14:21:44;15.77;;;4.55;;
59145;SDS011;44928;53.074;6.646;2023-02-10T14:24:12;17.50;;;4.68;;
59145;SDS011;44928;53.074;6.646;2023-02-10T14:26:42;15.20;;;5.10;;
59145;SDS011;44928;53.074;6.646;2023-02-10T14:29:11;12.32;;;4.70;;
59145;SDS011;44928;53.074;6.646;2023-02-10T14:31:40;13.87;;;4.67;;
59145;SDS011;44928;53.074;6.646;2023-02-10T14:34:24;17.60;;;5.22;;
59145;SDS011;44928;53.074;6.646;2023-02-10T14:36:59;15.40;;;4.57;;
59145;SDS011;44928;53.074;6.646;2023-02-10T14:39:29;14.32;;;4.53;;
59145;SDS011;44928;53.074;6.646;2023-02-10T14:41:59;13.88;;;4.68;;
59145;SDS011;44928;53.074;6.646;2023-02-10T14:44:31;13.10;;;4.95;;
59145;SDS011;44928;53.074;6.646;2023-02-10T14:46:58;14.63;;;4.22;;
59145;SDS011;44928;53.074;6.646;2023-02-10T14:49:24;14.80;;;5.00;;
59145;SDS011;44928;53.074;6.646;2023-02-10T14:51:50;14.52;;;4.47;;
59145;SDS011;44928;53.074;6.646;2023-02-10T14:54:17;13.35;;;4.75;;
59145;SDS011;44928;53.074;6.646;2023-02-10T14:56:53;14.15;;;4.00;;
59145;SDS011;44928;53.074;6.646;2023-02-10T14:59:23;17.08;;;5.30;;
59145;SDS011;44928;53.074;6.646;2023-02-10T15:01:52;16.05;;;5.13;;
59145;SDS011;44928;53.074;6.646;2023-02-10T15:04:24;14.32;;;5.00;;
59145;SDS011;44928;53.074;6.646;2023-02-10T15:06:52;14.38;;;4.68;;
59145;SDS011;44928;53.074;6.646;2023-02-10T15:09:29;17.70;;;5.38;;
59145;SDS011;44928;53.074;6.646;2023-02-10T15:12:00;17.73;;;5.65;;
59145;SDS011;44928;53.074;6.646;2023-02-10T15:17:48;12.70;;;4.15;;
59145;SDS011;44928;53.074;6.646;2023-02-10T15:22:50;13.82;;;4.97;;
59145;SDS011;44928;53.074;6.646;2023-02-10T15:25:35;15.63;;;5.20;;
59145;SDS011;44928;53.074;6.646;2023-02-10T15:30:41;14.95;;;4.70;;
59145;SDS011;44928;53.074;6.646;2023-02-10T15:33:15;15.02;;;5.22;;
59145;SDS011;44928;53.074;6.646;2023-02-10T15:38:41;13.45;;;4.90;;
59145;SDS011;44928;53.074;6.646;2023-02-10T15:43:52;15.30;;;4.82;;
59145;SDS011;44928;53.074;6.646;2023-02-10T15:46:18;14.25;;;4.60;;
59145;SDS011;44928;53.074;6.646;2023-02-10T15:48:48;18.25;;;6.20;;
59145;SDS011;44928;53.074;6.646;2023-02-10T15:53:51;14.65;;;4.95;;
59145;SDS011;44928;53.074;6.646;2023-02-10T15:56:32;13.82;;;5.00;;
59145;SDS011;44928;53.074;6.646;2023-02-10T15:59:00;14.48;;;5.30;;
59145;SDS011;44928;53.074;6.646;2023-02-10T16:01:27;18.40;;;6.30;;
59145;SDS011;44928;53.074;6.646;2023-02-10T16:03:53;20.10;;;6.45;;
59145;SDS011;44928;53.074;6.646;2023-02-10T16:06:18;18.35;;;5.22;;
59145;SDS011;44928;53.074;6.646;2023-02-10T16:08:46;15.63;;;5.68;;
59145;SDS011;44928;53.074;6.646;2023-02-10T16:11:12;16.13;;;6.15;;
59145;SDS011;44928;53.074;6.646;2023-02-10T16:13:38;12.95;;;5.70;;
59145;SDS011;44928;53.074;6.646;2023-02-10T16:16:05;17.38;;;6.07;;
59145;SDS011;44928;53.074;6.646;2023-02-10T16:18:39;22.13;;;7.03;;
59145;SDS011;44928;53.074;6.646;2023-02-10T16:21:04;13.45;;;6.03;;
59145;SDS011;44928;53.074;6.646;2023-02-10T16:23:31;18.73;;;5.93;;
59145;SDS011;44928;53.074;6.646;2023-02-10T16:25:57;14.90;;;5.70;;
59145;SDS011;44928;53.074;6.646;2023-02-10T16:28:24;15.00;;;6.30;;
59145;SDS011;44928;53.074;6.646;2023-02-10T16:30:50;13.05;;;5.80;;
59145;SDS011;44928;53.074;6.646;2023-02-10T16:33:15;16.30;;;6.38;;
59145;SDS011;44928;53.074;6.646;2023-02-10T16:35:41;20.42;;;6.75;;
59145;SDS011;44928;53.074;6.646;2023-02-10T16:38:08;16.10;;;5.88;;
59145;SDS011;44928;53.074;6.646;2023-02-10T16:40:35;16.88;;;6.18;;
59145;SDS011;44928;53.074;6.646;2023-02-10T16:43:03;16.42;;;6.15;;
59145;SDS011;44928;53.074;6.646;2023-02-10T16:45:30;17.23;;;6.97;;
59145;SDS011;44928;53.074;6.646;2023-02-10T16:47:57;16.42;;;6.25;;
59145;SDS011;44928;53.074;6.646;2023-02-10T16:50:24;15.98;;;6.68;;
59145;SDS011;44928;53.074;6.646;2023-02-10T16:52:51;17.88;;;6.80;;
59145;SDS011;44928;53.074;6.646;2023-02-10T16:55:16;15.43;;;7.18;;
59145;SDS011;44928;53.074;6.646;2023-02-10T16:57:43;18.90;;;6.68;;
59145;SDS011;44928;53.074;6.646;2023-02-10T17:00:10;14.13;;;6.10;;
59145;SDS011;44928;53.074;6.646;2023-02-10T17:02:37;17.25;;;6.72;;
59145;SDS011;44928;53.074;6.646;2023-02-10T17:05:04;17.83;;;7.15;;
59145;SDS011;44928;53.074;6.646;2023-02-10T17:07:30;18.63;;;6.70;;
59145;SDS011;44928;53.074;6.646;2023-02-10T17:09:56;21.75;;;6.93;;
59145;SDS011;44928;53.074;6.646;2023-02-10T17:12:21;17.65;;;6.65;;
59145;SDS011;44928;53.074;6.646;2023-02-10T17:14:47;17.02;;;7.50;;